createdAt,value
2023-03-24T00:01:57.128Z,99077.97
2023-03-24T00:04:29.649Z,99086.41
2023-03-24T00:06:57.884Z,99093.66
2023-03-24T00:09:29.324Z,99100.78
2023-03-24T00:11:57.352Z,99100.22
2023-03-24T00:14:25.646Z,99094.09
2023-03-24T00:16:54.698Z,99092.13
2023-03-24T00:19:22.562Z,99082.28
2023-03-24T00:21:55.969Z,99089.09
2023-03-24T00:24:23.714Z,99094.25
2023-03-24T00:26:51.794Z,99084.78
2023-03-24T00:29:22.396Z,99077.59
2023-03-24T00:31:51.465Z,99080.66
2023-03-24T00:34:21.604Z,99070.94
2023-03-24T00:36:52.621Z,99072.72
2023-03-24T00:39:20.847Z,99065.09
2023-03-24T00:41:49.519Z,99066.63
2023-03-24T00:44:18.818Z,99061.13
2023-03-24T00:46:55.273Z,99048.03
2023-03-24T00:49:41.930Z,99046.59
2023-03-24T00:52:12.321Z,99049.41
2023-03-24T00:54:41.908Z,99042.84
2023-03-24T00:57:14.992Z,99036.63
2023-03-24T00:59:48.976Z,99018.75
2023-03-24T01:02:22.775Z,99011.50
2023-03-24T01:04:54.665Z,99016.44
2023-03-24T01:07:25.009Z,99002.28
2023-03-24T01:09:57.545Z,99000.53
2023-03-24T01:12:25.332Z,98996.44
2023-03-24T01:14:56.428Z,99006.72
2023-03-24T01:17:25.484Z,99001.97
2023-03-24T01:19:53.121Z,98988.41
2023-03-24T01:22:27.891Z,98980.91
2023-03-24T01:25:00.719Z,98973.78
2023-03-24T01:27:28.502Z,98978.13
2023-03-24T01:30:00.268Z,98972.50
2023-03-24T01:32:28.141Z,98973.44
2023-03-24T01:34:58.146Z,98965.25
2023-03-24T01:37:27.152Z,98961.75
2023-03-24T01:39:54.891Z,98945.13
2023-03-24T01:42:26.304Z,98953.34
2023-03-24T01:44:58.806Z,98954.50
2023-03-24T01:47:26.702Z,98948.31
2023-03-24T01:49:58.020Z,98953.34
2023-03-24T01:52:30.605Z,98951.47
2023-03-24T01:55:01.454Z,98948.78
2023-03-24T01:57:32.272Z,98938.47
2023-03-24T02:00:04.920Z,98937.56
2023-03-24T02:02:34.898Z,98941.53
2023-03-24T02:05:07.277Z,98947.00
2023-03-24T02:07:42.672Z,98942.94
2023-03-24T02:10:13.454Z,98929.97
2023-03-24T02:12:42.588Z,98930.06
2023-03-24T02:15:11.430Z,98923.38
2023-03-24T02:17:54.615Z,98916.63
2023-03-24T02:21:07.663Z,98912.75
2023-03-24T02:24:03.565Z,98914.50
2023-03-24T02:26:57.117Z,98906.34
2023-03-24T02:29:59.826Z,98904.09
2023-03-24T02:33:04.947Z,98898.63
2023-03-24T02:35:57.197Z,98887.06
2023-03-24T02:39:00.469Z,98890.56
2023-03-24T02:41:34.389Z,98877.00
2023-03-24T02:44:08.050Z,98871.31
2023-03-24T02:46:39.392Z,98863.25
2023-03-24T02:49:15.174Z,98856.25
2023-03-24T02:51:51.817Z,98858.22
2023-03-24T02:54:23.947Z,98858.09
2023-03-24T02:56:59.644Z,98847.09
2023-03-24T02:59:34.661Z,98841.72
2023-03-24T03:02:07.726Z,98840.66
2023-03-24T03:04:40.391Z,98841.97
2023-03-24T03:07:11.637Z,98850.38
2023-03-24T03:09:42.671Z,98857.38
2023-03-24T03:12:13.514Z,98869.78
2023-03-24T03:14:45.792Z,98870.16
2023-03-24T03:17:19.741Z,98853.09
2023-03-24T03:19:52.547Z,98850.72
2023-03-24T03:22:24.262Z,98837.75
2023-03-24T03:24:55.377Z,98831.34
2023-03-24T03:27:28.009Z,98835.09
2023-03-24T03:30:00.182Z,98832.41
2023-03-24T03:32:35.578Z,98822.38
2023-03-24T03:35:11.028Z,98819.53
2023-03-24T03:37:47.214Z,98811.03
2023-03-24T03:40:21.493Z,98820.00
2023-03-24T03:42:52.335Z,98828.50
2023-03-24T03:45:22.357Z,98824.78
2023-03-24T03:47:50.891Z,98822.78
2023-03-24T03:50:18.784Z,98815.16
2023-03-24T03:52:46.461Z,98817.75
2023-03-24T03:55:14.919Z,98811.78
2023-03-24T03:57:42.843Z,98812.59
2023-03-24T04:00:16.650Z,98811.22
2023-03-24T04:02:59.214Z,98823.69
2023-03-24T04:05:31.973Z,98810.34
2023-03-24T04:08:10.323Z,98814.09
2023-03-24T04:11:01.784Z,98813.03
2023-03-24T04:13:38.847Z,98807.97
2023-03-24T04:16:13.179Z,98802.34
2023-03-24T04:19:04.444Z,98808.16
2023-03-24T04:21:48.794Z,98810.16
2023-03-24T04:24:32.750Z,98816.28
2023-03-24T04:27:10.226Z,98807.97
2023-03-24T04:29:47.767Z,98813.34
2023-03-24T04:32:25.020Z,98821.59
2023-03-24T04:35:01.290Z,98814.91
2023-03-24T04:37:33.340Z,98810.41
2023-03-24T04:40:07.302Z,98820.38
2023-03-24T04:42:38.335Z,98814.16
2023-03-24T04:45:08.074Z,98823.56
2023-03-24T04:47:45.428Z,98818.31
2023-03-24T04:50:14.435Z,98815.78
2023-03-24T04:52:43.698Z,98816.69
2023-03-24T04:55:46.375Z,98818.59
2023-03-24T04:58:14.130Z,98817.72
2023-03-24T05:00:44.259Z,98809.28
2023-03-24T05:03:14.480Z,98796.81
2023-03-24T05:05:42.803Z,98794.75
2023-03-24T05:08:11.512Z,98792.63
2023-03-24T05:10:40.893Z,98781.88
2023-03-24T05:13:09.073Z,98787.50
2023-03-24T05:15:36.926Z,98779.91
2023-03-24T05:18:05.636Z,98791.31
2023-03-24T05:20:36.924Z,98779.81
2023-03-24T05:23:04.741Z,98779.88
2023-03-24T05:25:32.384Z,98767.56
2023-03-24T05:28:00.525Z,98791.94
2023-03-24T05:30:28.165Z,98809.47
2023-03-24T05:32:56.054Z,98818.09
2023-03-24T05:35:24.645Z,98837.94
2023-03-24T05:37:54.631Z,98842.81
2023-03-24T05:40:22.202Z,98841.44
2023-03-24T05:42:50.876Z,98856.16
2023-03-24T05:45:18.621Z,98848.00
2023-03-24T05:47:47.553Z,98857.41
2023-03-24T05:50:15.420Z,98862.66
2023-03-24T05:52:43.016Z,98856.47
2023-03-24T05:55:12.104Z,98859.16
2023-03-24T05:57:39.673Z,98861.41
2023-03-24T06:00:15.132Z,98872.25
2023-03-24T06:02:44.297Z,98870.72
2023-03-24T06:05:12.394Z,98870.72
2023-03-24T06:07:42.326Z,98876.91
2023-03-24T06:10:14.260Z,98874.53
2023-03-24T06:12:42.262Z,98866.69
2023-03-24T06:15:10.964Z,98876.09
2023-03-24T06:17:38.652Z,98861.75
2023-03-24T06:20:15.519Z,98877.81
2023-03-24T06:22:45.097Z,98874.63
2023-03-24T06:25:15.193Z,98869.19
2023-03-24T06:27:46.183Z,98870.63
2023-03-24T06:30:16.293Z,98869.53
2023-03-24T06:32:47.674Z,98862.00
2023-03-24T06:35:15.906Z,98871.72
2023-03-24T06:37:44.688Z,98864.78
2023-03-24T06:40:17.414Z,98860.03
2023-03-24T06:42:46.918Z,98864.84
2023-03-24T06:45:14.773Z,98866.00
2023-03-24T06:47:42.525Z,98874.22
2023-03-24T06:50:11.160Z,98869.50
2023-03-24T06:52:38.765Z,98861.56
2023-03-24T06:55:08.297Z,98868.38
2023-03-24T06:57:38.891Z,98874.41
2023-03-24T07:00:10.274Z,98870.97
2023-03-24T07:02:38.383Z,98873.34
2023-03-24T07:05:08.911Z,98875.06
2023-03-24T07:10:08.538Z,98873.94
2023-03-24T07:12:37.789Z,98877.28
2023-03-24T07:15:10.325Z,98882.72
2023-03-24T07:17:38.325Z,98879.38
2023-03-24T07:20:08.452Z,98888.91
2023-03-24T07:22:37.105Z,98892.97
2023-03-24T07:25:07.007Z,98895.97
2023-03-24T07:27:39.448Z,98893.69
2023-03-24T07:30:29.982Z,98904.13
2023-03-24T07:33:02.102Z,98900.13
2023-03-24T07:35:35.301Z,98898.69
2023-03-24T07:38:16.033Z,98908.00
2023-03-24T07:40:46.750Z,98908.97
2023-03-24T07:43:17.086Z,98908.22
2023-03-24T07:45:46.353Z,98905.78
2023-03-24T07:48:14.350Z,98914.19
2023-03-24T07:50:44.282Z,98919.75
2023-03-24T07:53:14.954Z,98915.78
2023-03-24T07:55:43.162Z,98927.66
2023-03-24T07:58:12.980Z,98923.97
2023-03-24T08:00:43.482Z,98912.19
2023-03-24T08:03:15.812Z,98922.34
2023-03-24T08:09:23.506Z,98929.34
2023-03-24T08:14:58.708Z,98920.84
2023-03-24T08:17:27.747Z,98928.19
2023-03-24T08:20:00.382Z,98914.16
2023-03-24T08:22:31.429Z,98922.16
2023-03-24T08:24:59.265Z,98919.78
2023-03-24T08:27:27.074Z,98922.81
2023-03-24T08:29:56.431Z,98904.19
2023-03-24T08:32:24.444Z,98906.81
2023-03-24T08:34:54.204Z,98919.94
2023-03-24T08:37:21.885Z,98930.63
2023-03-24T08:39:58.493Z,98934.25
2023-03-24T08:42:27.752Z,98940.78
2023-03-24T08:44:55.450Z,98944.44
2023-03-24T08:47:23.441Z,98933.84
2023-03-24T08:49:51.319Z,98945.47
2023-03-24T08:52:20.244Z,98940.78
2023-03-24T08:54:47.948Z,98934.63
2023-03-24T08:57:18.097Z,98921.06
2023-03-24T08:59:46.348Z,98921.16
2023-03-24T09:02:14.611Z,98916.34
2023-03-24T09:04:43.354Z,98937.91
2023-03-24T09:07:11.465Z,98924.44
2023-03-24T09:09:40.673Z,98913.75
2023-03-24T09:12:12.168Z,98922.63
2023-03-24T09:14:44.075Z,98913.72
2023-03-24T09:17:11.799Z,98930.13
2023-03-24T09:19:39.837Z,98931.31
2023-03-24T09:22:08.265Z,98933.28
2023-03-24T09:24:36.232Z,98936.16
2023-03-24T09:27:07.579Z,98943.69
2023-03-24T09:29:35.224Z,98943.69
2023-03-24T09:32:02.994Z,98948.28
2023-03-24T09:34:32.019Z,98947.22
2023-03-24T09:37:02.240Z,98949.00
2023-03-24T09:39:29.943Z,98943.59
2023-03-24T09:41:57.770Z,98958.66
2023-03-24T09:44:32.823Z,98965.09
2023-03-24T09:47:05.760Z,98962.19
2023-03-24T09:49:38.795Z,98962.44
2023-03-24T09:52:08.098Z,98970.00
2023-03-24T09:54:45.480Z,98977.59
2023-03-24T09:57:21.331Z,98981.72
2023-03-24T09:59:50.564Z,98993.38
2023-03-24T10:02:23.198Z,98994.19
2023-03-24T10:04:51.195Z,99005.22
2023-03-24T10:07:28.153Z,99017.66
2023-03-24T10:09:59.292Z,99007.97
2023-03-24T10:12:35.995Z,99004.25
2023-03-24T10:15:24.339Z,99009.72
2023-03-24T10:18:07.126Z,99011.84
2023-03-24T10:20:46.475Z,99026.84
2023-03-24T10:23:31.682Z,99031.84
2023-03-24T10:26:06.622Z,99041.50
2023-03-24T10:28:54.809Z,99047.69
2023-03-24T10:31:31.702Z,99056.69
2023-03-24T10:34:00.555Z,99064.28
2023-03-24T10:36:29.294Z,99060.34
2023-03-24T10:39:09.561Z,99055.41
2023-03-24T10:41:51.016Z,99056.22
2023-03-24T10:44:19.764Z,99054.53
2023-03-24T10:46:52.128Z,99043.00
2023-03-24T10:49:25.469Z,99042.81
2023-03-24T10:52:02.124Z,99031.84
2023-03-24T10:54:33.395Z,99040.53
2023-03-24T10:57:16.215Z,99035.94
2023-03-24T10:59:54.568Z,99037.84
2023-03-24T11:02:28.322Z,99039.75
2023-03-24T11:04:58.230Z,99049.03
2023-03-24T11:07:32.458Z,99060.44
2023-03-24T11:10:05.385Z,99059.22
2023-03-24T11:12:35.884Z,99061.84
2023-03-24T11:15:22.905Z,99063.13
2023-03-24T11:17:57.611Z,99072.78
2023-03-24T11:20:33.501Z,99077.81
2023-03-24T11:23:05.291Z,99077.72
2023-03-24T11:25:36.009Z,99073.69
2023-03-24T11:28:08.744Z,99069.97
2023-03-24T11:30:47.092Z,99061.19
2023-03-24T11:33:34.447Z,99066.72
2023-03-24T11:36:30.167Z,99073.81
2023-03-24T11:39:11.834Z,99073.88
2023-03-24T11:41:58.428Z,99052.97
2023-03-24T11:44:27.780Z,99057.97
2023-03-24T11:47:01.260Z,99052.03
2023-03-24T11:49:32.843Z,99049.59
2023-03-24T11:52:05.083Z,99045.69
2023-03-24T11:54:46.566Z,99049.16
2023-03-24T11:57:24.281Z,99049.06
2023-03-24T12:00:07.576Z,99049.06
2023-03-24T12:02:55.001Z,99041.94
2023-03-24T12:05:32.392Z,99031.94
2023-03-24T12:08:14.914Z,99022.41
2023-03-24T12:11:01.053Z,99027.22
2023-03-24T12:13:35.782Z,99016.06
2023-03-24T12:16:39.928Z,99018.78
2023-03-24T12:19:36.515Z,99027.97
2023-03-24T12:22:17.355Z,99028.34
2023-03-24T12:25:25.474Z,99023.09
2023-03-24T12:31:15.658Z,99021.78
2023-03-24T12:34:18.982Z,99027.44
2023-03-24T12:37:02.201Z,99023.00
2023-03-24T12:39:55.687Z,99020.78
2023-03-24T12:42:24.971Z,99013.94
2023-03-24T12:45:21.394Z,99019.41
2023-03-24T12:48:33.060Z,99026.38
2023-03-24T12:51:14.345Z,99018.53
2023-03-24T12:53:54.784Z,99023.69
2023-03-24T13:00:16.351Z,99007.50
2023-03-24T13:02:48.195Z,99016.25
2023-03-24T13:05:29.547Z,99017.25
2023-03-24T13:08:03.340Z,99014.63
2023-03-24T13:10:41.254Z,99004.19
2023-03-24T13:13:15.090Z,98994.50
2023-03-24T13:15:48.622Z,98993.66
2023-03-24T13:18:28.013Z,98994.19
2023-03-24T13:21:01.293Z,98998.84
2023-03-24T13:23:39.593Z,99002.41
2023-03-24T13:26:19.018Z,98977.66
2023-03-24T13:28:57.261Z,98987.16
2023-03-24T13:31:30.608Z,98979.03
2023-03-24T13:34:01.642Z,98984.59
2023-03-24T13:39:30.716Z,98973.16
2023-03-24T13:42:36.446Z,98969.56
2023-03-24T13:45:09.794Z,98961.97
2023-03-24T13:48:00.460Z,98967.31
2023-03-24T13:50:29.646Z,98965.97
2023-03-24T13:53:08.926Z,98969.09
2023-03-24T13:55:43.090Z,98968.66
2023-03-24T13:58:33.230Z,98948.84
2023-03-24T14:01:26.976Z,98949.72
2023-03-24T14:04:23.486Z,98952.50
2023-03-24T14:06:55.092Z,98949.19
2023-03-24T14:09:25.468Z,98962.41
2023-03-24T14:12:18.083Z,98950.47
2023-03-24T14:15:15.999Z,98961.56
2023-03-24T14:17:46.035Z,98957.72
2023-03-24T14:20:31.633Z,98952.97
2023-03-24T14:23:04.953Z,98951.06
2023-03-24T14:25:37.373Z,98948.41
2023-03-24T14:28:19.077Z,98948.41
2023-03-24T14:31:01.928Z,98932.75
2023-03-24T14:33:32.001Z,98935.13
2023-03-24T14:36:47.904Z,98927.56
2023-03-24T14:39:30.095Z,98926.78
2023-03-24T14:41:59.254Z,98931.47
2023-03-24T14:44:56.160Z,98929.81
2023-03-24T14:47:32.340Z,98940.66
2023-03-24T14:50:08.970Z,98936.34
2023-03-24T14:52:44.230Z,98933.09
2023-03-24T14:55:20.730Z,98940.69
2023-03-24T14:57:53.369Z,98945.28
2023-03-24T15:06:13.478Z,98946.94
2023-03-24T15:08:49.905Z,98938.03
2023-03-24T15:11:20.825Z,98944.03
2023-03-24T15:13:50.852Z,98929.63
2023-03-24T15:16:23.670Z,98931.44
2023-03-24T15:19:01.233Z,98939.28
2023-03-24T15:21:35.199Z,98933.03
2023-03-24T15:24:26.495Z,98933.19
2023-03-24T15:26:56.215Z,98933.97
2023-03-24T15:29:37.185Z,98927.25
2023-03-24T15:32:10.987Z,98919.88
2023-03-24T15:34:42.533Z,98923.25
2023-03-24T15:37:23.163Z,98930.66
2023-03-24T15:40:01.723Z,98917.88
2023-03-24T15:42:50.677Z,98923.25
2023-03-24T15:45:23.437Z,98915.28
2023-03-24T15:47:57.835Z,98909.47
2023-03-24T15:50:39.378Z,98907.22
2023-03-24T15:53:25.669Z,98909.06
2023-03-24T15:56:08.266Z,98912.31
2023-03-24T15:58:54.691Z,98904.75
2023-03-24T16:01:34.199Z,98908.75
2023-03-24T16:04:17.067Z,98913.38
2023-03-24T16:06:54.217Z,98904.41
2023-03-24T16:09:27.714Z,98909.75
2023-03-24T16:11:57.384Z,98902.63
2023-03-24T16:14:27.115Z,98911.22
2023-03-24T16:16:56.288Z,98912.00
2023-03-24T16:19:24.498Z,98906.53
2023-03-24T16:21:52.557Z,98904.03
2023-03-24T16:24:21.104Z,98914.81
2023-03-24T16:26:50.260Z,98909.00
2023-03-24T16:29:21.612Z,98916.03
2023-03-24T16:31:53.423Z,98921.69
2023-03-24T16:34:23.102Z,98919.38
2023-03-24T16:36:54.159Z,98921.63
2023-03-24T16:39:24.965Z,98925.09
2023-03-24T16:41:52.652Z,98920.25
2023-03-24T16:44:26.928Z,98924.88
2023-03-24T16:47:01.503Z,98931.34
2023-03-24T16:49:29.188Z,98929.78
2023-03-24T16:51:57.955Z,98932.84
2023-03-24T16:54:25.680Z,98934.25
2023-03-24T16:56:53.436Z,98936.69
2023-03-24T16:59:22.673Z,98944.03
2023-03-24T17:01:53.136Z,98935.44
2023-03-24T17:04:23.603Z,98946.72
2023-03-24T17:06:54.254Z,98942.25
2023-03-24T17:09:22.738Z,98939.44
2023-03-24T17:11:54.774Z,98938.44
2023-03-24T17:14:24.134Z,98934.53
2023-03-24T17:16:53.409Z,98944.41
2023-03-24T17:19:23.286Z,98938.34
2023-03-24T17:22:04.175Z,98941.72
2023-03-24T17:24:36.593Z,98947.59
2023-03-24T17:27:06.466Z,98945.88
2023-03-24T17:29:36.846Z,98957.03
2023-03-24T17:32:04.771Z,98950.44
2023-03-24T17:34:32.446Z,98952.56
2023-03-24T17:37:01.324Z,98948.06
2023-03-24T17:39:29.129Z,98950.41
2023-03-24T17:42:08.321Z,98948.63
2023-03-24T17:44:37.366Z,98955.50
2023-03-24T17:47:07.829Z,98951.34
2023-03-24T17:49:35.392Z,98959.19
2023-03-24T17:52:03.083Z,98967.19
2023-03-24T17:54:30.952Z,98959.75
2023-03-24T17:56:58.544Z,98965.72
2023-03-24T17:59:26.494Z,98979.28
2023-03-24T18:01:55.548Z,98973.53
2023-03-24T18:04:25.682Z,98987.19
2023-03-24T18:06:57.458Z,98977.44
2023-03-24T18:09:25.363Z,98982.34
2023-03-24T18:11:53.171Z,98985.50
2023-03-24T18:14:20.832Z,99000.16
2023-03-24T18:16:48.576Z,98995.19
2023-03-24T18:19:17.826Z,98993.03
2023-03-24T18:21:46.645Z,99000.28
2023-03-24T18:24:15.015Z,98996.22
2023-03-24T18:26:43.064Z,99002.34
2023-03-24T18:29:11.347Z,99003.28
2023-03-24T18:31:39.078Z,99006.47
2023-03-24T18:34:06.959Z,99010.94
2023-03-24T18:36:40.217Z,99013.78
2023-03-24T18:39:12.869Z,99016.56
2023-03-24T18:41:40.932Z,99027.47
2023-03-24T18:44:11.015Z,99028.44
2023-03-24T18:46:44.782Z,99034.88
2023-03-24T18:49:14.104Z,99042.50
2023-03-24T18:51:45.164Z,99045.69
2023-03-24T18:54:14.740Z,99053.75
2023-03-24T18:56:43.970Z,99047.88
2023-03-24T18:59:12.612Z,99042.03
2023-03-24T19:01:48.589Z,99027.66
2023-03-24T19:04:16.822Z,99037.25
2023-03-24T19:06:47.149Z,99029.66
2023-03-24T19:09:20.076Z,99041.25
2023-03-24T19:11:47.906Z,99045.69
2023-03-24T19:14:15.612Z,99045.69
2023-03-24T19:16:43.116Z,99048.59
2023-03-24T19:19:10.893Z,99054.78
2023-03-24T19:21:40.233Z,99061.47
2023-03-24T19:24:09.823Z,99071.09
2023-03-24T19:26:38.834Z,99071.06
2023-03-24T19:29:09.799Z,99075.63
2023-03-24T19:31:37.689Z,99077.75
2023-03-24T19:34:05.726Z,99073.16
2023-03-24T19:36:34.249Z,99092.81
2023-03-24T19:39:03.007Z,99095.53
2023-03-24T19:41:31.937Z,99100.41
2023-03-24T19:43:59.551Z,99118.69
2023-03-24T19:46:27.637Z,99122.22
2023-03-24T19:48:55.472Z,99125.00
2023-03-24T19:51:24.732Z,99133.31
2023-03-24T19:53:54.737Z,99131.44
2023-03-24T19:56:22.696Z,99133.66
2023-03-24T19:58:51.909Z,99133.56
2023-03-24T20:01:26.939Z,99137.53
2023-03-24T20:06:53.195Z,99131.50
2023-03-24T20:09:26.618Z,99117.97
2023-03-24T20:14:49.996Z,99122.78
2023-03-24T20:17:25.006Z,99120.75
2023-03-24T20:20:15.847Z,99124.03
2023-03-24T20:22:48.861Z,99113.63
2023-03-24T20:25:23.358Z,99102.63
2023-03-24T20:30:52.449Z,99107.19
2023-03-24T20:33:23.585Z,99110.00
2023-03-24T20:38:48.677Z,99095.25
2023-03-24T20:41:33.197Z,99105.66
2023-03-24T20:44:11.068Z,99087.38
2023-03-24T20:46:49.272Z,99095.31
2023-03-24T20:52:29.045Z,99091.72
2023-03-24T20:55:13.303Z,99088.31
2023-03-24T20:57:50.562Z,99099.41
2023-03-24T21:00:22.044Z,99105.59
2023-03-24T21:03:09.287Z,99100.97
2023-03-24T21:05:59.836Z,99099.88
2023-03-24T21:08:32.281Z,99094.31
2023-03-24T21:11:05.116Z,99086.94
2023-03-24T21:13:38.038Z,99086.25
2023-03-24T21:16:09.034Z,99089.63
2023-03-24T21:18:48.218Z,99095.00
2023-03-24T21:21:17.090Z,99097.38
2023-03-24T21:26:54.205Z,99102.38
2023-03-24T21:29:23.600Z,99099.47
2023-03-24T21:31:58.170Z,99102.59
2023-03-24T21:34:44.697Z,99103.88
2023-03-24T21:37:17.566Z,99110.06
2023-03-24T21:39:49.672Z,99121.63
2023-03-24T21:42:25.432Z,99118.22
2023-03-24T21:45:00.816Z,99123.63
2023-03-24T21:47:34.880Z,99121.84
2023-03-24T21:50:11.674Z,99149.75
2023-03-24T21:52:43.413Z,99134.09
2023-03-24T21:55:18.252Z,99147.88
2023-03-24T22:00:42.426Z,99157.72
2023-03-24T22:03:12.580Z,99153.88
2023-03-24T22:08:58.955Z,99156.72
2023-03-24T22:11:33.551Z,99166.63
2023-03-24T22:14:09.149Z,99164.38
2023-03-24T22:16:44.487Z,99169.53
2023-03-24T22:19:17.980Z,99173.94
2023-03-24T22:25:16.284Z,99166.94
2023-03-24T22:30:42.565Z,99180.28
2023-03-24T22:33:31.693Z,99168.47
2023-03-24T22:38:49.644Z,99180.28
2023-03-24T22:41:19.381Z,99176.75
2023-03-24T22:43:50.368Z,99167.56
2023-03-24T22:46:22.326Z,99171.94
2023-03-24T22:48:51.090Z,99189.06
2023-03-24T22:51:21.708Z,99185.38
2023-03-24T22:54:04.308Z,99196.63
2023-03-24T22:56:32.574Z,99193.94
2023-03-24T22:59:03.030Z,99198.81
2023-03-24T23:04:14.990Z,99194.78
2023-03-24T23:06:44.211Z,99206.50
2023-03-24T23:09:18.465Z,99196.41
2023-03-24T23:11:49.846Z,99199.47
2023-03-24T23:14:20.508Z,99206.59
2023-03-24T23:16:49.014Z,99209.03
2023-03-24T23:19:16.724Z,99220.97
2023-03-24T23:21:45.974Z,99217.31
2023-03-24T23:24:13.478Z,99222.28
2023-03-24T23:26:42.429Z,99221.50
2023-03-24T23:29:10.179Z,99223.13
2023-03-24T23:31:37.844Z,99221.97
2023-03-24T23:34:07.556Z,99223.66
2023-03-24T23:36:35.253Z,99218.75
2023-03-24T23:39:03.350Z,99219.13
2023-03-24T23:41:32.423Z,99222.03
2023-03-24T23:44:01.542Z,99211.97
2023-03-24T23:46:29.257Z,99224.94
2023-03-24T23:48:57.103Z,99230.06
2023-03-24T23:51:24.686Z,99221.25
2023-03-24T23:53:52.224Z,99216.50
2023-03-24T23:56:22.691Z,99225.19
2023-03-24T23:58:52.177Z,99226.84
